Time;durP1;ratioP1;P1;durP2;ratioP2;P2;SDS_P1;SDS_P2;PMS_P1;PMS_P2;Temp;Humidity;BMP_temperature;BMP_pressure;BME280_temperature;BME280_humidity;BME280_pressure;Samples;Min_cycle;Max_cycle;Signal;HPM_P1;HPM_P2
2023/06/09 00:01:12;;;;;;;;;19.25;18.75;;;;;24.50;45.94;100578.34;6277273;22;45303;-88
2023/06/09 00:03:39;;;;;;;;;19.00;19.00;;;;;24.45;45.96;100567.03;6250048;22;45213;-88
2023/06/09 00:06:05;;;;;;;;;18.50;18.50;;;;;24.49;45.71;100576.63;6250666;22;45283;-89
2023/06/09 00:08:32;;;;;;;;;17.25;16.25;;;;;24.46;45.98;100579.63;6276115;22;45364;-89
2023/06/09 00:10:57;;;;;;;;;23.00;22.50;;;;;24.53;46.56;100594.44;6276910;22;45451;-90
2023/06/09 00:13:23;;;;;;;;;19.25;18.25;;;;;24.37;46.04;100563.16;6276652;22;45270;-91
2023/06/09 00:15:48;;;;;;;;;19.75;18.50;;;;;24.30;46.52;100553.81;6276908;22;45345;-89
2023/06/09 00:18:16;;;;;;;;;16.50;16.50;;;;;24.30;46.63;100559.25;6277843;22;45498;-91
2023/06/09 00:20:42;;;;;;;;;18.00;18.00;;;;;24.46;46.58;100587.81;6249625;22;47421;-91
2023/06/09 00:23:08;;;;;;;;;19.25;16.50;;;;;24.39;46.47;100577.50;6249915;22;45173;-91
2023/06/09 00:25:34;;;;;;;;;19.00;17.75;;;;;24.21;46.89;100541.88;6250936;22;45389;-91
2023/06/09 00:27:59;;;;;;;;;20.00;19.00;;;;;24.26;46.46;100563.28;6250023;22;45429;-92
2023/06/09 00:30:25;;;;;;;;;19.00;19.00;;;;;24.22;46.51;100553.66;6277717;22;46276;-92
2023/06/09 00:32:50;;;;;;;;;19.75;19.75;;;;;24.23;46.63;100550.78;6253388;22;45188;-92
2023/06/09 00:35:16;;;;;;;;;23.00;21.00;;;;;24.17;46.53;100545.94;6257751;22;45285;-92
2023/06/09 00:37:42;;;;;;;;;21.50;18.25;;;;;24.23;47.21;100549.94;6267298;22;44721;-91
2023/06/09 00:40:08;;;;;;;;;19.25;18.00;;;;;24.18;46.85;100541.31;6263251;22;47306;-92
2023/06/09 00:42:33;;;;;;;;;18.25;18.25;;;;;24.31;47.23;100563.72;6252735;22;45283;-92
2023/06/09 00:44:59;;;;;;;;;22.25;20.50;;;;;24.06;47.28;100518.78;6251029;22;45229;-92
2023/06/09 00:47:26;;;;;;;;;18.75;18.75;;;;;24.27;47.10;100558.69;6249217;22;45245;-93
2023/06/09 00:49:52;;;;;;;;;18.75;18.75;;;;;24.25;47.51;100556.09;6249980;22;47228;-91
2023/06/09 00:52:18;;;;;;;;;18.50;14.50;;;;;24.20;47.23;100542.03;6250248;22;45224;-89
2023/06/09 00:54:43;;;;;;;;;22.75;21.00;;;;;23.95;47.44;100500.69;6249127;22;45209;-90
2023/06/09 00:57:10;;;;;;;;;19.25;19.25;;;;;24.08;47.38;100524.94;6275871;22;45328;-90
2023/06/09 00:59:36;;;;;;;;;18.50;18.50;;;;;24.09;47.43;100531.25;6277728;22;45251;-91
2023/06/09 01:02:04;;;;;;;;;21.50;21.00;;;;;24.05;47.69;100514.31;6250411;22;45231;-90
2023/06/09 01:04:34;;;;;;;;;20.00;20.00;;;;;24.05;47.52;100515.19;6250226;22;45276;-89
2023/06/09 01:07:22;;;;;;;;;20.75;19.50;;;;;23.95;47.66;100517.03;6248659;22;45323;-89
2023/06/09 01:09:57;;;;;;;;;18.75;18.75;;;;;24.16;47.39;100546.91;6249774;22;48214;-89
2023/06/09 01:12:44;;;;;;;;;20.50;20.50;;;;;24.18;47.64;100544.03;6249696;22;45467;-90
2023/06/09 01:15:22;;;;;;;;;17.25;17.00;;;;;24.03;47.93;100511.75;6277095;22;45353;-90
2023/06/09 01:17:51;;;;;;;;;20.25;20.25;;;;;24.16;47.83;100522.38;6249516;22;45213;-90
2023/06/09 01:20:35;;;;;;;;;24.00;24.00;;;;;24.20;48.35;100533.84;6276864;22;45310;-90
2023/06/09 01:23:16;;;;;;;;;21.50;20.50;;;;;24.05;47.70;100515.19;6250122;22;45171;-90
2023/06/09 01:25:45;;;;;;;;;19.00;18.00;;;;;24.16;48.04;100522.38;6277450;22;45226;-89
2023/06/09 01:28:23;;;;;;;;;22.75;20.75;;;;;24.04;48.53;100507.16;6274815;22;45359;-90
2023/06/09 01:30:51;;;;;;;;;19.75;19.00;;;;;23.92;48.45;100487.34;6250154;22;47239;-89
2023/06/09 01:33:20;;;;;;;;;18.00;16.00;;;;;24.04;48.50;100510.75;6249473;22;45239;-91
2023/06/09 01:35:46;;;;;;;;;20.00;19.25;;;;;23.92;48.05;100491.94;6249953;22;45317;-91
2023/06/09 01:38:13;;;;;;;;;22.75;22.75;;;;;23.90;48.47;100491.22;6249987;22;45533;-91
2023/06/09 01:40:39;;;;;;;;;23.25;22.25;;;;;23.80;48.68;100488.44;6250190;22;47147;-91
2023/06/09 01:43:06;;;;;;;;;23.75;20.75;;;;;23.94;48.54;100518.06;6249661;22;45735;-90
2023/06/09 01:45:31;;;;;;;;;22.25;21.00;;;;;23.83;48.46;100499.09;6275405;22;45166;-90
2023/06/09 01:47:57;;;;;;;;;22.25;21.25;;;;;23.89;48.52;100511.28;6250048;22;45523;-90
2023/06/09 01:50:52;;;;;;;;;20.25;19.25;;;;;23.95;48.63;100525.22;6276306;22;46133;-89
2023/06/09 01:53:24;;;;;;;;;22.00;20.50;;;;;23.76;48.98;100501.50;6221913;22;45501;-87
2023/06/09 01:56:01;;;;;;;;;23.75;23.75;;;;;23.86;49.07;100523.34;6249675;22;45232;-87
2023/06/09 01:58:36;;;;;;;;;21.00;21.00;;;;;23.61;49.13;100473.78;6276065;22;45272;-87
2023/06/09 02:01:02;;;;;;;;;20.00;19.50;;;;;23.66;48.98;100487.00;6276902;22;45257;-87
2023/06/09 02:03:31;;;;;;;;;21.50;20.25;;;;;23.57;49.43;100485.09;6276757;22;45209;-87
2023/06/09 02:05:58;;;;;;;;;24.50;22.00;;;;;23.55;48.80;100479.78;6249691;22;45445;-87
2023/06/09 02:08:27;;;;;;;;;22.50;22.50;;;;;23.59;48.98;100486.72;6276916;22;45276;-87
2023/06/09 02:10:52;;;;;;;;;21.00;20.00;;;;;23.49;49.02;100475.78;6277116;22;45284;-87
2023/06/09 02:13:21;;;;;;;;;22.00;19.25;;;;;23.45;48.99;100477.03;6248357;22;45206;-87
2023/06/09 02:15:47;;;;;;;;;22.75;21.00;;;;;23.61;49.39;100511.09;6276394;22;45985;-87
2023/06/09 02:18:15;;;;;;;;;20.50;20.00;;;;;23.36;48.88;100474.31;6248765;22;45967;-87
2023/06/09 02:20:42;;;;;;;;;21.50;20.50;;;;;23.37;49.09;100471.47;6249197;22;47937;-87
2023/06/09 02:23:08;;;;;;;;;21.25;20.25;;;;;23.42;49.38;100485.53;6251232;22;45403;-87
2023/06/09 02:25:34;;;;;;;;;21.00;21.00;;;;;23.30;49.46;100465.72;6277664;22;45202;-87
2023/06/09 02:28:03;;;;;;;;;20.00;18.50;;;;;23.43;49.56;100492.69;6278348;22;45390;-87
2023/06/09 02:30:28;;;;;;;;;22.00;21.50;;;;;23.29;49.60;100463.97;6250575;22;47311;-87
2023/06/09 02:32:55;;;;;;;;;21.75;19.75;;;;;23.26;49.62;100456.09;6278045;22;45605;-86
2023/06/09 02:35:20;;;;;;;;;21.25;20.00;;;;;23.31;49.74;100472.00;6278449;22;45259;-87
2023/06/09 02:37:46;;;;;;;;;23.25;22.50;;;;;23.22;49.88;100451.94;6278303;22;45187;-87
2023/06/09 02:40:12;;;;;;;;;17.50;16.75;;;;;23.35;50.13;100468.00;6251030;22;47351;-87
2023/06/09 02:42:38;;;;;;;;;23.50;21.00;;;;;23.24;49.31;100452.66;6250189;22;45502;-86
2023/06/09 02:45:05;;;;;;;;;20.00;18.75;;;;;23.24;50.28;100455.38;6251484;22;45298;-86
2023/06/09 02:47:30;;;;;;;;;22.00;22.00;;;;;23.42;50.00;100476.47;6278111;22;45341;-87
2023/06/09 02:49:55;;;;;;;;;22.00;21.00;;;;;23.22;49.87;100451.03;6276686;22;45508;-87
2023/06/09 02:52:21;;;;;;;;;21.50;21.50;;;;;23.33;50.52;100474.59;6250429;22;45841;-87
2023/06/09 02:54:46;;;;;;;;;18.25;18.25;;;;;23.17;50.33;100442.44;6278574;22;45317;-87
2023/06/09 02:57:13;;;;;;;;;19.00;19.00;;;;;23.31;50.10;100475.59;6250311;22;48549;-87
2023/06/09 02:59:39;;;;;;;;;19.75;19.75;;;;;23.16;50.40;100449.75;6278023;22;45184;-87
2023/06/09 03:02:05;;;;;;;;;23.50;20.50;;;;;23.20;50.22;100445.72;6251027;22;45289;-87
2023/06/09 03:04:31;;;;;;;;;21.00;19.25;;;;;23.18;50.68;100452.34;6278760;22;45358;-87
2023/06/09 03:06:56;;;;;;;;;18.75;17.75;;;;;23.24;50.19;100471.69;6276490;22;45251;-87
2023/06/09 03:09:22;;;;;;;;;23.00;23.00;;;;;23.31;50.58;100482.91;6250417;22;47251;-87
2023/06/09 03:11:47;;;;;;;;;21.75;20.25;;;;;23.06;50.37;100441.53;6249743;22;45536;-88
2023/06/09 03:14:13;;;;;;;;;21.25;19.75;;;;;23.30;50.54;100487.50;6277882;22;45296;-87
2023/06/09 03:16:38;;;;;;;;;21.75;20.00;;;;;23.12;50.73;100457.34;6250547;22;45326;-88
2023/06/09 03:19:05;;;;;;;;;22.75;21.25;;;;;23.17;50.74;100466.94;6250665;22;47812;-88
2023/06/09 03:21:35;;;;;;;;;23.00;21.25;;;;;23.10;50.81;100467.50;6250584;22;45443;-87
2023/06/09 03:24:02;;;;;;;;;23.50;20.75;;;;;23.17;50.71;100476.00;6250301;22;45220;-86
2023/06/09 03:26:27;;;;;;;;;21.25;21.25;;;;;22.92;50.73;100437.31;6277086;22;45274;-87
2023/06/09 03:28:53;;;;;;;;;23.25;21.75;;;;;23.09;50.99;100476.66;6250382;22;47093;-87
2023/06/09 03:31:18;;;;;;;;;20.25;20.25;;;;;23.09;51.12;100478.53;6251405;22;45550;-89
2023/06/09 03:33:44;;;;;;;;;22.25;21.25;;;;;23.12;51.27;100490.00;6250124;22;45207;-89
2023/06/09 03:36:09;;;;;;;;;21.25;21.25;;;;;22.98;51.32;100478.59;6277544;22;45234;-88
2023/06/09 03:38:35;;;;;;;;;22.25;21.75;;;;;23.06;51.11;100481.50;6250492;22;47345;-87
2023/06/09 03:41:01;;;;;;;;;22.25;22.25;;;;;22.97;51.28;100465.97;6249375;22;45377;-88
2023/06/09 03:43:28;;;;;;;;;22.00;21.00;;;;;22.97;50.91;100474.13;6278362;22;45402;-89
2023/06/09 03:45:54;;;;;;;;;20.25;19.50;;;;;22.98;51.10;100478.59;6275973;22;45392;-89
2023/06/09 03:48:19;;;;;;;;;22.00;21.00;;;;;22.81;50.92;100464.63;6277740;22;45573;-88
2023/06/09 03:50:44;;;;;;;;;22.00;22.00;;;;;22.81;51.60;100469.22;6250319;22;45145;-88
2023/06/09 03:53:10;;;;;;;;;21.75;20.00;;;;;22.74;51.17;100458.84;6250902;22;45394;-88
2023/06/09 03:55:38;;;;;;;;;17.00;16.00;;;;;22.57;51.48;100438.56;6278167;22;45184;-87
2023/06/09 03:58:03;;;;;;;;;16.75;15.75;;;;;22.63;51.40;100456.22;6277221;22;45212;-87
2023/06/09 04:00:29;;;;;;;;;21.00;21.00;;;;;22.62;51.54;100454.50;6278374;22;45178;-88
2023/06/09 04:02:54;;;;;;;;;25.00;23.00;;;;;22.62;51.42;100459.94;6250418;22;45272;-88
2023/06/09 04:05:21;;;;;;;;;22.75;20.50;;;;;22.74;51.79;100482.50;6250783;22;45452;-88
2023/06/09 04:07:46;;;;;;;;;22.00;19.00;;;;;22.65;51.28;100473.25;6250292;22;47144;-88
2023/06/09 04:10:11;;;;;;;;;20.50;19.50;;;;;22.73;51.44;100484.31;6278288;22;45207;-88
2023/06/09 04:12:38;;;;;;;;;18.00;18.00;;;;;22.59;51.73;100465.66;6276417;22;45766;-88
2023/06/09 04:15:06;;;;;;;;;23.00;22.25;;;;;22.57;51.68;100456.78;6277108;22;45227;-90
2023/06/09 04:17:32;;;;;;;;;18.50;18.50;;;;;22.57;51.43;100462.22;6277771;22;45266;-89
2023/06/09 04:19:58;;;;;;;;;22.00;21.75;;;;;22.53;51.50;100460.75;6250290;22;45716;-88
2023/06/09 04:22:23;;;;;;;;;23.00;23.00;;;;;22.46;51.61;100468.56;6250780;22;45342;-88
2023/06/09 04:24:48;;;;;;;;;21.25;21.00;;;;;22.45;51.41;100468.69;6250379;22;45644;-87
2023/06/09 04:27:15;;;;;;;;;20.75;20.00;;;;;22.50;51.71;100499.06;6249706;22;49861;-86
2023/06/09 04:29:41;;;;;;;;;23.75;20.75;;;;;22.36;51.76;100475.81;6250888;22;45408;-88
2023/06/09 04:32:07;;;;;;;;;21.75;21.75;;;;;22.43;52.16;100489.72;6250764;22;45368;-90
2023/06/09 04:34:39;;;;;;;;;21.75;21.75;;;;;22.39;52.16;100489.13;6275878;22;45274;-90
2023/06/09 04:37:07;;;;;;;;;20.00;18.75;;;;;22.32;51.72;100491.53;6250414;22;46987;-88
2023/06/09 04:39:33;;;;;;;;;20.75;19.00;;;;;22.20;52.15;100474.38;6277432;22;45265;-89
2023/06/09 04:42:03;;;;;;;;;23.00;22.50;;;;;22.31;52.04;100489.78;6276743;22;45323;-89
2023/06/09 04:44:28;;;;;;;;;21.75;20.50;;;;;22.24;52.08;100476.84;6277027;22;45190;-88
2023/06/09 04:46:54;;;;;;;;;19.75;17.25;;;;;22.25;52.15;100482.13;6250911;22;47115;-87
2023/06/09 04:49:20;;;;;;;;;20.50;20.00;;;;;22.20;52.18;100477.09;6248838;22;51121;-88
2023/06/09 04:51:48;;;;;;;;;21.50;21.00;;;;;22.20;52.01;100485.25;6277337;22;45268;-88
2023/06/09 04:54:14;;;;;;;;;20.75;18.25;;;;;22.25;51.92;100500.28;6277464;22;45180;-82
2023/06/09 04:56:41;;;;;;;;;20.50;20.25;;;;;22.15;52.60;100492.94;6277779;22;45842;-82
2023/06/09 04:59:07;;;;;;;;;19.25;19.00;;;;;22.20;52.48;100509.72;6249872;22;45145;-83
2023/06/09 05:01:33;;;;;;;;;22.00;21.00;;;;;22.25;52.34;100503.00;6277698;22;45468;-82
2023/06/09 05:03:59;;;;;;;;;23.00;21.25;;;;;22.09;52.49;100488.00;6278179;22;45147;-82
2023/06/09 05:06:25;;;;;;;;;23.75;21.50;;;;;22.14;52.58;100484.91;6249692;22;47170;-82
2023/06/09 05:08:51;;;;;;;;;23.50;21.75;;;;;22.24;52.63;100499.44;6277381;22;45252;-82
2023/06/09 05:11:17;;;;;;;;;21.50;20.00;;;;;22.21;51.99;100503.28;6277138;22;45488;-82
2023/06/09 05:13:42;;;;;;;;;22.50;22.50;;;;;22.18;52.07;100500.81;6248730;22;45414;-82
2023/06/09 05:16:07;;;;;;;;;20.00;19.25;;;;;22.13;52.61;100500.34;6246986;22;48110;-80
2023/06/09 05:18:33;;;;;;;;;23.25;20.75;;;;;22.04;52.58;100495.69;6275882;22;45327;-81
2023/06/09 05:20:58;;;;;;;;;20.75;20.00;;;;;22.07;52.49;100490.00;6247904;22;45340;-80
2023/06/09 05:23:23;;;;;;;;;24.25;23.00;;;;;22.08;52.79;100493.59;6277296;22;45228;-80
2023/06/09 05:25:49;;;;;;;;;23.75;23.75;;;;;22.13;52.09;100504.91;6276870;22;45940;-90
2023/06/09 05:28:15;;;;;;;;;23.25;21.25;;;;;21.96;52.38;100480.03;6276561;22;45401;-90
2023/06/09 05:30:40;;;;;;;;;27.75;26.00;;;;;22.10;52.85;100506.06;6248545;22;45195;-90
2023/06/09 05:33:06;;;;;;;;;24.25;21.50;;;;;22.08;52.91;100497.16;6275992;22;45395;-80
2023/06/09 05:35:32;;;;;;;;;24.50;23.50;;;;;22.16;52.54;100513.69;6274404;22;46106;-81
2023/06/09 05:37:58;;;;;;;;;20.25;20.25;;;;;22.10;52.84;100503.34;6275998;22;45167;-82
2023/06/09 05:40:23;;;;;;;;;22.00;21.00;;;;;22.14;52.20;100499.34;6275558;22;45283;-82
2023/06/09 05:42:49;;;;;;;;;20.75;20.75;;;;;22.19;52.47;100520.72;6249430;22;45520;-83
2023/06/09 05:45:15;;;;;;;;;24.50;22.25;;;;;22.09;52.65;100503.47;6247730;22;46902;-82
2023/06/09 05:47:40;;;;;;;;;22.75;21.75;;;;;22.12;52.69;100504.06;6245880;22;46004;-81
2023/06/09 05:50:06;;;;;;;;;21.00;19.50;;;;;22.25;52.14;100522.91;6275785;22;45204;-81
2023/06/09 05:52:31;;;;;;;;;25.50;24.00;;;;;22.15;52.09;100500.22;6277197;22;45223;-81
2023/06/09 05:54:57;;;;;;;;;25.50;20.75;;;;;22.21;52.16;100513.28;6276871;22;45855;-81
2023/06/09 05:57:25;;;;;;;;;20.50;20.50;;;;;22.27;52.04;100523.66;6274396;22;45275;-82
2023/06/09 05:59:51;;;;;;;;;21.00;21.00;;;;;22.26;52.36;100513.75;6249038;22;45334;-81
2023/06/09 06:02:16;;;;;;;;;21.75;20.25;;;;;22.27;52.08;100520.03;6276535;22;45238;-81
2023/06/09 06:04:42;;;;;;;;;21.00;19.50;;;;;22.29;52.16;100521.69;6275919;22;46122;-82
2023/06/09 06:07:07;;;;;;;;;20.50;20.50;;;;;22.28;52.47;100527.22;6276320;22;49674;-82
2023/06/09 06:09:33;;;;;;;;;23.50;19.50;;;;;22.29;51.97;100521.69;6276254;22;45405;-82
2023/06/09 06:11:58;;;;;;;;;20.75;20.75;;;;;22.30;51.59;100525.25;6276568;22;45235;-82
2023/06/09 06:14:23;;;;;;;;;23.75;21.50;;;;;22.31;52.29;100527.84;6275798;22;45187;-83
2023/06/09 06:16:49;;;;;;;;;22.00;20.00;;;;;22.26;51.63;100521.91;6276602;22;45182;-87
2023/06/09 06:19:14;;;;;;;;;18.75;17.25;;;;;22.34;51.75;100530.31;6249787;22;45295;-87
2023/06/09 06:21:42;;;;;;;;;18.75;17.50;;;;;22.18;52.13;100495.38;6277451;22;45326;-89
2023/06/09 06:24:09;;;;;;;;;20.25;19.75;;;;;22.23;51.26;100500.41;6275291;22;46174;-89
2023/06/09 06:26:35;;;;;;;;;19.75;17.00;;;;;22.37;51.71;100521.91;6277099;22;45208;-88
2023/06/09 06:29:00;;;;;;;;;19.50;18.25;;;;;22.24;52.09;100498.59;6274919;22;45290;-88
2023/06/09 06:31:28;;;;;;;;;22.25;20.00;;;;;22.31;51.84;100500.66;6275717;22;45240;-89
2023/06/09 06:33:53;;;;;;;;;21.50;20.25;;;;;22.38;52.14;100507.28;6275215;22;46004;-89
2023/06/09 06:36:21;;;;;;;;;22.00;22.00;;;;;22.40;51.94;100504.44;6248168;22;45148;-89
2023/06/09 06:38:47;;;;;;;;;21.00;21.00;;;;;22.54;51.58;100525.03;6274975;22;45239;-89
2023/06/09 06:41:12;;;;;;;;;19.50;17.75;;;;;22.43;51.66;100506.91;6275549;22;45438;-89
2023/06/09 06:43:37;;;;;;;;;17.25;16.75;;;;;22.35;52.11;100488.53;6275635;22;50147;-89
2023/06/09 06:46:02;;;;;;;;;18.50;18.25;;;;;22.56;51.93;100515.72;6248465;22;45722;-89
2023/06/09 06:48:28;;;;;;;;;22.25;21.50;;;;;22.64;51.57;100522.38;6275549;22;45194;-89
2023/06/09 06:50:54;;;;;;;;;21.75;19.75;;;;;22.50;51.54;100499.06;6271415;22;45380;-84
2023/06/09 06:53:19;;;;;;;;;22.00;20.00;;;;;22.56;51.21;100515.72;6247598;22;48115;-83
2023/06/09 06:55:44;;;;;;;;;22.50;20.50;;;;;22.54;51.61;100512.28;6269758;22;45108;-85
2023/06/09 06:58:10;;;;;;;;;20.75;20.75;;;;;22.68;51.85;100535.56;6247080;22;45216;-86
2023/06/09 07:00:35;;;;;;;;;8.25;7.25;;;;;22.62;51.82;100519.78;6270456;22;45443;-86
2023/06/09 07:03:06;;;;;;;;;22.00;22.00;;;;;22.62;51.53;100517.06;6273080;22;46074;-87
2023/06/09 07:05:31;;;;;;;;;23.00;22.25;;;;;22.73;51.60;100524.28;6272397;22;45865;-87
2023/06/09 07:07:56;;;;;;;;;20.00;19.25;;;;;22.63;51.70;100501.59;6273687;22;45637;-87
2023/06/09 07:10:23;;;;;;;;;23.00;20.75;;;;;22.73;51.73;100519.69;6277051;22;50652;-88
2023/06/09 07:12:50;;;;;;;;;21.75;20.00;;;;;22.69;51.38;100509.25;6249615;22;46993;-88
2023/06/09 07:15:16;;;;;;;;;20.50;20.25;;;;;22.79;51.61;100507.44;6249120;22;45425;-87
2023/06/09 07:17:44;;;;;;;;;23.00;22.25;;;;;22.86;51.72;100527.66;6276263;22;45211;-88
2023/06/09 07:20:10;;;;;;;;;20.25;17.75;;;;;22.97;51.82;100529.44;6249893;22;45473;-88
2023/06/09 07:26:05;;;;;;;;;26.25;21.00;;;;;22.96;51.62;100524.13;6187632;22;45433;-86
2023/06/09 07:28:31;;;;;;;;;19.75;19.75;;;;;22.70;51.94;100467.41;6246829;22;45403;-85
2023/06/09 07:31:05;;;;;;;;;22.50;20.75;;;;;23.20;51.59;100542.91;6248670;22;45409;-82
2023/06/09 07:33:32;;;;;;;;;21.50;21.50;;;;;22.99;51.33;100511.13;6247754;22;48233;-83
2023/06/09 07:35:58;;;;;;;;;19.25;18.00;;;;;23.05;51.65;100516.00;6249468;22;45276;-83
2023/06/09 07:41:52;;;;;;;;;20.75;20.75;;;;;23.11;51.54;100498.31;6275242;22;45448;-85
2023/06/09 07:44:20;;;;;;;;;25.00;21.50;;;;;23.25;51.62;100511.53;6246217;22;46817;-84
2023/06/09 07:46:50;;;;;;;;;23.25;20.75;;;;;23.50;51.67;100539.28;6275649;22;45489;-84
2023/06/09 07:49:15;;;;;;;;;20.25;19.25;;;;;23.37;51.29;100506.88;6276080;22;45279;-85
2023/06/09 07:51:46;;;;;;;;;22.50;21.75;;;;;23.57;51.80;100523.25;6274412;22;45284;-84
2023/06/09 07:54:37;;;;;;;;;24.25;20.25;;;;;23.77;51.22;100541.38;6248146;22;47620;-84
2023/06/09 07:57:03;;;;;;;;;21.00;20.00;;;;;23.48;51.32;100490.41;6276856;22;45520;-83
2023/06/09 07:59:28;;;;;;;;;21.50;19.50;;;;;23.73;51.18;100517.28;6249174;22;45282;-83
2023/06/09 08:01:53;;;;;;;;;23.00;22.50;;;;;23.88;51.00;100532.25;6249278;22;45404;-84
2023/06/09 08:04:19;;;;;;;;;22.75;21.25;;;;;24.00;50.80;100542.00;6275821;22;45271;-85
2023/06/09 08:06:45;;;;;;;;;22.00;21.75;;;;;24.04;51.00;100534.44;6249300;22;45296;-83
2023/06/09 08:09:10;;;;;;;;;18.00;15.00;;;;;24.00;50.16;100509.28;6278099;22;45204;-83
2023/06/09 08:11:38;;;;;;;;;24.00;22.75;;;;;24.21;50.04;100530.97;6276660;22;45353;-85
2023/06/09 08:14:03;;;;;;;;;23.00;23.00;;;;;24.22;50.09;100512.75;6275929;22;45326;-85
2023/06/09 08:16:30;;;;;;;;;21.50;21.00;;;;;24.23;50.79;100501.69;6275996;22;45364;-84
2023/06/09 08:18:55;;;;;;;;;20.50;18.25;;;;;24.34;50.00;100506.16;6276127;22;45191;-83
2023/06/09 08:21:22;;;;;;;;;21.00;19.00;;;;;24.39;50.17;100495.66;6277020;22;45469;-83
2023/06/09 08:23:47;;;;;;;;;16.50;16.00;;;;;24.52;49.96;100498.06;6250142;22;47253;-84
2023/06/09 08:26:12;;;;;;;;;21.25;18.75;;;;;24.60;49.75;100497.38;6249817;22;45825;-86
2023/06/09 08:28:41;;;;;;;;;21.00;19.75;;;;;24.78;49.64;100519.31;6275999;22;45680;-84
2023/06/09 08:31:09;;;;;;;;;17.50;16.50;;;;;24.78;49.72;100494.75;6249276;22;45303;-85
2023/06/09 08:33:35;;;;;;;;;19.50;19.25;;;;;24.95;48.86;100514.97;6249599;22;47177;-84
2023/06/09 08:36:03;;;;;;;;;19.00;19.00;;;;;24.95;48.88;100493.13;6250057;22;45442;-83
2023/06/09 08:38:31;;;;;;;;;18.25;17.25;;;;;24.97;48.24;100480.16;6277009;22;45340;-84
2023/06/09 08:41:10;;;;;;;;;19.75;19.00;;;;;25.10;47.85;100490.75;6250241;22;45397;-84
2023/06/09 08:43:36;;;;;;;;;20.00;19.25;;;;;25.17;48.01;100494.59;6277176;22;45270;-86
2023/06/09 08:46:05;;;;;;;;;18.50;18.25;;;;;25.32;47.87;100495.84;6248530;22;45354;-84
2023/06/09 08:48:32;;;;;;;;;20.25;19.50;;;;;25.37;47.03;100489.09;6276933;22;45335;-85
2023/06/09 08:50:58;;;;;;;;;19.75;19.75;;;;;25.46;46.40;100494.50;6249979;22;45352;-81
2023/06/09 08:53:25;;;;;;;;;17.75;15.75;;;;;25.49;46.24;100498.78;6276646;22;45936;-82
2023/06/09 08:55:52;;;;;;;;;20.50;19.50;;;;;25.47;46.68;100495.34;6277346;22;45208;-81
2023/06/09 08:58:18;;;;;;;;;22.25;20.00;;;;;25.58;46.31;100497.03;6277395;22;45245;-82
2023/06/09 09:00:43;;;;;;;;;18.75;17.50;;;;;25.61;46.58;100488.50;6276953;22;45309;-82
2023/06/09 09:03:09;;;;;;;;;19.25;18.75;;;;;25.67;46.01;100482.44;6277584;22;45644;-82
2023/06/09 09:05:35;;;;;;;;;21.25;18.50;;;;;25.68;45.95;100470.50;6276964;22;45254;-83
2023/06/09 09:08:00;;;;;;;;;23.25;21.75;;;;;25.81;45.68;100486.50;6277145;22;45187;-84
2023/06/09 09:10:25;;;;;;;;;20.75;20.25;;;;;25.92;46.00;100497.22;6276706;22;45306;-80
2023/06/09 09:12:54;;;;;;;;;20.50;18.00;;;;;25.93;45.61;100495.31;6276384;22;46132;-81
2023/06/09 09:15:20;;;;;;;;;95.75;91.75;;;;;26.01;45.41;100489.97;6276539;22;45296;-81
2023/06/09 09:17:46;;;;;;;;;19.00;19.00;;;;;26.09;45.14;100495.53;6275203;22;45290;-81
2023/06/09 09:20:14;;;;;;;;;19.25;19.25;;;;;26.05;45.10;100478.56;6275120;22;45282;-81
2023/06/09 09:22:58;;;;;;;;;21.75;19.75;;;;;26.13;45.15;100486.00;6275328;22;45272;-79
2023/06/09 09:25:26;;;;;;;;;19.00;18.25;;;;;26.22;45.03;100481.47;6275589;22;45327;-78
2023/06/09 09:27:58;;;;;;;;;19.50;18.75;;;;;26.23;45.15;100472.25;6249809;22;45322;-78
2023/06/09 09:30:40;;;;;;;;;19.75;19.75;;;;;26.32;44.60;100484.97;6249177;22;45564;-78
2023/06/09 09:33:09;;;;;;;;;15.75;15.75;;;;;26.39;44.47;100476.97;6277467;22;45261;-78
2023/06/09 09:35:39;;;;;;;;;21.00;21.00;;;;;26.39;44.40;100466.03;6275766;22;45272;-84
2023/06/09 09:38:12;;;;;;;;;19.00;19.00;;;;;26.35;44.44;100451.81;6277267;22;45457;-85
2023/06/09 09:40:42;;;;;;;;;22.00;21.50;;;;;26.49;44.51;100469.53;6248569;22;45325;-82
2023/06/09 09:43:10;;;;;;;;;18.75;18.75;;;;;26.54;44.13;100467.16;6277585;22;45842;-82
2023/06/09 09:45:37;;;;;;;;;14.75;13.25;;;;;26.58;43.91;100473.16;6277017;22;45267;-82
2023/06/09 09:48:11;;;;;;;;;19.50;19.50;;;;;26.61;43.98;100465.53;6275861;22;45240;-82
2023/06/09 09:50:37;;;;;;;;;19.50;18.25;;;;;26.67;44.09;100471.41;6276588;22;45252;-82
2023/06/09 09:53:06;;;;;;;;;19.75;18.50;;;;;26.71;43.61;100470.03;6274376;22;46155;-81
2023/06/09 09:55:34;;;;;;;;;19.50;19.50;;;;;26.67;43.86;100452.25;6276761;22;45456;-82
2023/06/09 09:58:04;;;;;;;;;18.75;18.75;;;;;26.82;43.42;100460.72;6276661;22;45287;-82
2023/06/09 10:00:35;;;;;;;;;13.25;11.75;;;;;26.80;43.00;100447.19;6276192;22;45278;-84
2023/06/09 10:03:03;;;;;;;;;20.25;18.25;;;;;26.73;43.13;100427.81;6276850;22;45322;-84
2023/06/09 10:05:33;;;;;;;;;18.25;17.50;;;;;26.87;42.92;100441.91;6276228;22;45227;-84
2023/06/09 10:08:02;;;;;;;;;21.00;21.00;;;;;26.92;42.54;100450.50;6249174;22;45339;-84
2023/06/09 10:10:28;;;;;;;;;20.25;19.25;;;;;26.98;43.10;100453.44;6277114;22;45243;-84
2023/06/09 10:12:55;;;;;;;;;20.75;20.75;;;;;26.94;42.69;100440.22;6274310;22;45870;-84
2023/06/09 10:15:21;;;;;;;;;22.75;22.25;;;;;26.98;42.73;100434.25;6247582;22;45280;-84
2023/06/09 10:17:48;;;;;;;;;18.75;18.50;;;;;27.05;42.89;100434.47;6275447;22;45334;-82
2023/06/09 10:20:14;;;;;;;;;20.25;20.00;;;;;27.14;42.86;100449.06;6276501;22;45302;-81
2023/06/09 10:22:41;;;;;;;;;21.25;19.50;;;;;27.27;42.36;100451.34;6276438;22;45272;-82
2023/06/09 10:25:08;;;;;;;;;18.50;17.00;;;;;27.21;42.70;100435.53;6276557;22;45255;-83
2023/06/09 10:27:34;;;;;;;;;21.50;19.25;;;;;27.34;42.14;100444.19;6249238;22;45221;-82
2023/06/09 10:30:00;;;;;;;;;20.25;19.75;;;;;27.38;42.17;100445.56;6276406;22;45208;-82
2023/06/09 10:32:29;;;;;;;;;17.75;17.50;;;;;27.34;41.81;100441.44;6276645;22;46381;-81
2023/06/09 10:34:57;;;;;;;;;20.00;18.00;;;;;27.48;41.66;100443.56;6248095;22;45299;-82
2023/06/09 10:37:30;;;;;;;;;16.25;16.25;;;;;27.53;41.08;100443.03;6274290;22;45360;-82
2023/06/09 10:40:04;;;;;;;;;15.25;14.75;;;;;27.52;40.66;100444.06;6276092;22;45184;-84
2023/06/09 10:42:51;;;;;;;;;19.50;19.00;;;;;27.56;40.60;100450.94;6277063;22;46397;-84
2023/06/09 10:45:19;;;;;;;;;19.25;19.25;;;;;27.60;40.81;100446.84;6277647;22;45412;-84
2023/06/09 10:47:46;;;;;;;;;14.25;14.25;;;;;27.63;41.01;100443.78;6250029;22;45344;-84
2023/06/09 10:50:32;;;;;;;;;15.75;15.00;;;;;27.62;40.36;100430.22;6276146;22;45260;-84
2023/06/09 10:53:01;;;;;;;;;18.50;16.50;;;;;27.78;39.52;100451.31;6276602;22;45614;-84
2023/06/09 10:55:30;;;;;;;;;15.50;15.25;;;;;27.70;39.57;100428.34;6278370;22;45125;-84
2023/06/09 10:57:57;;;;;;;;;18.50;17.00;;;;;27.73;39.22;100422.53;6276593;22;45312;-84
2023/06/09 11:00:24;;;;;;;;;18.75;16.25;;;;;27.82;39.47;100433.50;6277502;22;45266;-84
2023/06/09 11:03:16;;;;;;;;;17.00;17.00;;;;;27.97;39.61;100452.94;6277849;22;46026;-84
2023/06/09 11:05:43;;;;;;;;;18.75;18.75;;;;;28.03;38.39;100435.75;6228826;22;45442;-84
2023/06/09 11:08:08;;;;;;;;;17.50;16.00;;;;;27.96;38.73;100430.09;6277721;22;45322;-84
2023/06/09 11:10:36;;;;;;;;;17.25;17.25;;;;;27.94;38.50;100423.09;6276901;22;45332;-84
2023/06/09 11:13:03;;;;;;;;;19.00;16.25;;;;;27.95;38.03;100425.66;6276908;22;45884;-84
2023/06/09 11:16:00;;;;;;;;;15.25;15.25;;;;;28.12;38.90;100458.56;6277518;22;45159;-84
2023/06/09 11:18:26;;;;;;;;;18.00;17.50;;;;;27.94;37.89;100421.19;6249664;22;45343;-84